Panama City Beach, Florida
Current Conditions -  °F | °C
As of 9:53 AM on Saturday 20 Dec 2014 (Local Time) from KECP Reporting Station
Overcast Overcast  
Wind Chill: 52°   Ceiling: 5000
Heat Index: 52°   Visibility: 10mi
Dew Point: 48°   Wind: 9mph
Humidity: 86%   Direction: 30°NNE
Pressure: 30.14"   Gusts: NA
Location:  30.21°N, 85.85°W
Report Text: KECP 201553Z 03008KT 10SM OVC050 11/09 A3014 RMK AO2 RAB34E45 SLP216 P0000 T01110089
Loading
Personal Weather Stations






























Interactive Weather Map New forecast layout! Learn more

10-Day Weather Forecast

Advertisements
Track Severe Weather on mobile